Time;durP1;ratioP1;P1;durP2;ratioP2;P2;SDS_P1;SDS_P2;PMS_P1;PMS_P2;Temp;Humidity;BMP_temperature;BMP_pressure;BME280_temperature;BME280_humidity;BME280_pressure;Samples;Min_cycle;Max_cycle;Signal;HPM_P1;HPM_P2
2022/06/21 00:00:34;;;;;;;7.93;4.32;;;26.30;66.40;;;;;;5052437;28;20013;-74
2022/06/21 00:03:06;;;;;;;7.72;4.15;;;26.30;65.50;;;;;;5052404;28;20036;-74
2022/06/21 00:05:37;;;;;;;7.93;4.38;;;26.30;64.70;;;;;;5052619;28;20060;-74
2022/06/21 00:08:07;;;;;;;7.18;3.42;;;26.30;63.90;;;;;;5052583;28;20167;-74
2022/06/21 00:10:34;;;;;;;9.18;4.63;;;26.30;62.70;;;;;;5052400;28;20017;-74
2022/06/21 00:13:13;;;;;;;9.27;4.15;;;26.20;61.90;;;;;;5052342;28;20033;-75
2022/06/21 00:15:40;;;;;;;6.93;4.00;;;26.20;61.40;;;;;;5051016;28;20025;-74
2022/06/21 00:18:12;;;;;;;8.32;4.07;;;26.20;60.50;;;;;;5052519;28;20036;-74
2022/06/21 00:20:38;;;;;;;8.43;4.35;;;26.30;60.00;;;;;;5052342;28;20071;-73
2022/06/21 00:23:03;;;;;;;10.52;4.47;;;26.30;59.60;;;;;;5052364;28;20486;-73
2022/06/21 00:25:29;;;;;;;6.25;3.50;;;26.30;59.10;;;;;;5053455;28;20128;-74
2022/06/21 00:27:57;;;;;;;10.52;3.72;;;26.30;58.50;;;;;;5056038;28;20377;-73
2022/06/21 00:30:23;;;;;;;6.22;3.97;;;26.30;58.10;;;;;;5054280;28;20102;-73
2022/06/21 00:32:52;;;;;;;9.07;3.92;;;26.30;58.00;;;;;;5055522;28;20035;-74
2022/06/21 00:35:22;;;;;;;8.10;4.20;;;26.20;57.60;;;;;;5055659;28;20021;-74
2022/06/21 00:37:48;;;;;;;7.70;3.97;;;26.20;57.10;;;;;;5055800;28;20096;-73
2022/06/21 00:40:25;;;;;;;9.05;3.92;;;26.10;57.00;;;;;;5055697;28;20052;-74
2022/06/21 00:43:18;;;;;;;10.40;4.07;;;26.20;56.80;;;;;;5055772;28;20543;-73
2022/06/21 00:45:47;;;;;;;8.77;4.10;;;26.10;56.00;;;;;;5053165;28;20390;-74
2022/06/21 00:48:16;;;;;;;13.10;4.90;;;26.10;56.10;;;;;;5055588;28;20036;-75
2022/06/21 00:50:47;;;;;;;8.05;4.43;;;26.10;55.40;;;;;;5053854;28;20489;-74
2022/06/21 00:53:36;;;;;;;12.30;4.30;;;26.00;54.90;;;;;;5055165;28;20033;-75
2022/06/21 00:56:41;;;;;;;8.15;4.10;;;26.00;54.30;;;;;;5055495;28;20443;-74
2022/06/21 00:59:25;;;;;;;10.32;4.65;;;25.90;54.30;;;;;;5033366;28;20146;-74
2022/06/21 01:01:57;;;;;;;8.20;4.35;;;25.90;53.40;;;;;;5053729;28;20033;-74
2022/06/21 01:04:34;;;;;;;7.60;4.68;;;25.90;53.80;;;;;;5055170;28;20071;-75
2022/06/21 01:07:03;;;;;;;9.85;4.18;;;25.90;53.10;;;;;;5055108;28;20021;-75
2022/06/21 01:09:36;;;;;;;9.07;4.40;;;25.90;53.40;;;;;;5053736;28;20025;-74
2022/06/21 01:12:02;;;;;;;;;;;25.90;52.10;;;;;;5055666;28;20486;-73
2022/06/21 01:14:30;;;;;;;8.25;4.10;;;25.90;52.70;;;;;;5054269;28;19911;-74
2022/06/21 01:16:56;;;;;;;9.55;3.95;;;25.90;52.80;;;;;;5055239;28;20036;-74
2022/06/21 01:19:33;;;;;;;6.35;3.88;;;25.80;52.50;;;;;;5055057;28;20496;-74
2022/06/21 01:22:06;;;;;;;10.43;4.03;;;25.80;52.40;;;;;;5053394;28;20474;-74
2022/06/21 01:24:48;;;;;;;11.82;4.22;;;25.80;52.70;;;;;;5054581;28;20486;-74
2022/06/21 01:27:14;;;;;;;8.55;3.63;;;25.80;51.40;;;;;;5054584;28;20021;-74
2022/06/21 01:29:41;;;;;;;7.90;3.65;;;25.70;52.40;;;;;;5054570;28;20124;-73
2022/06/21 01:32:07;;;;;;;8.05;3.30;;;25.70;52.30;;;;;;5054654;28;20364;-74
2022/06/21 01:34:33;;;;;;;5.95;3.47;;;25.70;52.40;;;;;;5054613;28;20028;-73
2022/06/21 01:37:19;;;;;;;6.38;3.30;;;25.70;52.20;;;;;;5053369;28;20029;-74
2022/06/21 01:39:52;;;;;;;7.95;3.15;;;25.70;52.40;;;;;;5052379;28;20478;-73
2022/06/21 01:42:27;;;;;;;10.52;3.83;;;25.70;52.40;;;;;;5054417;28;20025;-73
2022/06/21 01:44:55;;;;;;;7.25;3.83;;;25.70;52.50;;;;;;5054578;28;20025;-74
2022/06/21 01:47:27;;;;;;;12.73;3.90;;;25.70;52.50;;;;;;5053216;28;20021;-74
2022/06/21 01:49:59;;;;;;;9.93;3.90;;;25.60;52.60;;;;;;5053079;28;20047;-74
2022/06/21 01:52:28;;;;;;;7.57;4.05;;;25.60;52.80;;;;;;5054282;28;20051;-75
2022/06/21 01:55:01;;;;;;;7.93;4.10;;;25.60;52.70;;;;;;5054503;28;20025;-74
2022/06/21 01:57:28;;;;;;;8.13;3.83;;;25.60;52.60;;;;;;5054533;28;20037;-75
2022/06/21 01:59:54;;;;;;;11.25;4.82;;;25.60;52.60;;;;;;5054189;28;20021;-74
2022/06/21 02:02:19;;;;;;;6.90;3.80;;;25.60;52.10;;;;;;5054465;28;20028;-75
2022/06/21 02:04:59;;;;;;;8.50;3.65;;;25.50;52.00;;;;;;5053833;28;20021;-74
2022/06/21 02:07:32;;;;;;;9.43;3.67;;;25.50;52.40;;;;;;5053832;28;20021;-75
2022/06/21 02:10:10;;;;;;;8.00;3.90;;;25.50;52.50;;;;;;5052258;28;20136;-74
2022/06/21 02:12:41;;;;;;;7.80;3.58;;;25.40;52.20;;;;;;5053923;28;20048;-74
2022/06/21 02:15:25;;;;;;;6.47;3.40;;;25.30;52.30;;;;;;5053756;28;20063;-74
2022/06/21 02:17:53;;;;;;;15.43;3.90;;;25.40;52.50;;;;;;5053804;28;20489;-74
2022/06/21 02:20:25;;;;;;;8.75;3.58;;;25.40;52.10;;;;;;5053481;28;20505;-73
2022/06/21 02:22:51;;;;;;;6.55;3.83;;;25.40;52.00;;;;;;5054310;28;20112;-74
2022/06/21 02:25:22;;;;;;;8.57;3.47;;;25.30;51.80;;;;;;5064309;28;20075;-73
2022/06/21 02:27:51;;;;;;;5.68;3.30;;;25.30;51.90;;;;;;5057156;28;20021;-74
2022/06/21 02:30:22;;;;;;;9.23;3.70;;;25.30;52.10;;;;;;5053981;28;20537;-74
2022/06/21 02:32:50;;;;;;;8.80;4.10;;;25.30;52.20;;;;;;5055189;28;20025;-75
2022/06/21 02:35:22;;;;;;;8.98;3.22;;;25.20;52.00;;;;;;5054331;28;20032;-72
2022/06/21 02:37:50;;;;;;;8.48;3.22;;;25.20;51.10;;;;;;5054133;28;20056;-75
2022/06/21 02:40:39;;;;;;;7.22;3.30;;;25.20;51.90;;;;;;5053142;28;20113;-74
2022/06/21 02:43:49;;;;;;;7.75;3.78;;;25.10;51.90;;;;;;5053416;28;20032;-74
2022/06/21 02:46:22;;;;;;;6.85;3.53;;;25.10;50.90;;;;;;5041154;28;20037;-73
2022/06/21 02:48:56;;;;;;;7.95;3.35;;;25.00;51.90;;;;;;5053501;28;20040;-74
2022/06/21 02:51:28;;;;;;;5.70;3.38;;;24.90;50.70;;;;;;5052697;28;20107;-74
2022/06/21 02:54:18;;;;;;;8.73;3.40;;;24.90;51.80;;;;;;5051564;28;20029;-73
2022/06/21 02:56:47;;;;;;;6.85;3.22;;;24.90;51.80;;;;;;5052979;28;20021;-74
2022/06/21 02:59:15;;;;;;;7.80;3.45;;;24.90;51.70;;;;;;5051305;28;20100;-74
2022/06/21 03:01:44;;;;;;;10.43;3.58;;;24.90;52.00;;;;;;5053163;28;20059;-73
2022/06/21 03:04:18;;;;;;;7.78;3.70;;;24.90;51.80;;;;;;5053102;28;20411;-74
2022/06/21 03:06:45;;;;;;;6.07;3.47;;;24.80;51.60;;;;;;5052717;28;20021;-74
2022/06/21 03:09:17;;;;;;;10.00;3.35;;;24.80;51.50;;;;;;5052979;28;20021;-73
2022/06/21 03:11:46;;;;;;;6.32;3.20;;;24.70;51.40;;;;;;5052781;28;20029;-74
2022/06/21 03:14:18;;;;;;;14.23;3.33;;;24.60;51.10;;;;;;5052763;28;20068;-74
2022/06/21 03:16:45;;;;;;;7.38;3.33;;;24.60;49.70;;;;;;5052498;28;20100;-74
2022/06/21 03:19:24;;;;;;;5.57;3.10;;;24.60;50.80;;;;;;5052485;28;20024;-75
2022/06/21 03:21:50;;;;;;;5.47;3.05;;;24.60;49.60;;;;;;5051459;28;20032;-74
2022/06/21 03:24:20;;;;;;;8.23;3.47;;;24.60;50.70;;;;;;5052676;28;20352;-73
2022/06/21 03:26:56;;;;;;;9.02;3.80;;;24.60;50.80;;;;;;5052762;28;20082;-75
2022/06/21 03:29:23;;;;;;;7.65;3.60;;;24.50;50.70;;;;;;5052482;28;20086;-73
2022/06/21 03:31:49;;;;;;;8.95;3.30;;;24.50;50.80;;;;;;5052762;28;20051;-73
2022/06/21 03:34:20;;;;;;;8.40;3.20;;;24.50;50.60;;;;;;5052614;28;20025;-73
2022/06/21 03:36:46;;;;;;;8.27;3.55;;;24.50;50.90;;;;;;5052607;28;20036;-74
2022/06/21 03:39:16;;;;;;;6.95;3.45;;;24.50;50.60;;;;;;5052410;28;20405;-74
2022/06/21 03:41:44;;;;;;;8.85;3.80;;;24.50;50.70;;;;;;5053080;28;20021;-74
2022/06/21 03:44:29;;;;;;;9.98;3.72;;;24.50;50.70;;;;;;5052583;28;20390;-73
2022/06/21 03:46:58;;;;;;;9.63;3.50;;;24.40;49.50;;;;;;5052647;28;20071;-73
2022/06/21 03:49:52;;;;;;;10.07;3.95;;;24.30;50.50;;;;;;5052481;28;20534;-73
2022/06/21 03:52:42;;;;;;;10.02;3.35;;;24.30;49.70;;;;;;5052233;28;20124;-73
2022/06/21 03:55:12;;;;;;;7.80;3.58;;;24.20;49.30;;;;;;5051051;28;20022;-74
2022/06/21 03:57:42;;;;;;;7.70;3.38;;;24.30;50.50;;;;;;5052657;28;20036;-73
2022/06/21 04:00:12;;;;;;;9.00;3.10;;;24.20;50.40;;;;;;5053173;28;20048;-73
2022/06/21 04:02:59;;;;;;;7.80;2.95;;;24.20;50.40;;;;;;5056067;28;20605;-74
2022/06/21 04:05:27;;;;;;;8.35;3.25;;;24.20;50.80;;;;;;5055033;28;20025;-73
2022/06/21 04:08:12;;;;;;;8.93;3.10;;;24.20;49.90;;;;;;5056178;28;20029;-74
2022/06/21 04:10:45;;;;;;;6.43;3.00;;;24.20;49.80;;;;;;5056137;28;20029;-74
2022/06/21 04:13:39;;;;;;;6.10;2.92;;;24.20;50.20;;;;;;5056167;28;20375;-73
2022/06/21 04:16:13;;;;;;;10.15;3.60;;;24.30;50.50;;;;;;5056994;28;20021;-74
2022/06/21 04:18:42;;;;;;;7.35;3.20;;;24.40;49.40;;;;;;5054962;28;20037;-74
2022/06/21 04:21:18;;;;;;;8.20;3.65;;;24.40;50.10;;;;;;5056038;28;20134;-75
2022/06/21 04:24:05;;;;;;;5.85;3.30;;;24.50;48.80;;;;;;5056131;28;20132;-73
2022/06/21 04:26:37;;;;;;;8.63;3.53;;;24.50;48.40;;;;;;5055844;28;20405;-74
2022/06/21 04:29:13;;;;;;;7.35;3.42;;;24.60;50.00;;;;;;5054836;28;20018;-74
2022/06/21 04:31:44;;;;;;;5.68;3.10;;;24.70;50.20;;;;;;5056037;28;20371;-74
2022/06/21 04:34:15;;;;;;;6.30;3.10;;;24.70;49.90;;;;;;5055805;28;20525;-74
2022/06/21 04:36:48;;;;;;;9.10;3.50;;;24.80;49.80;;;;;;5055715;28;20037;-74
2022/06/21 04:39:22;;;;;;;7.65;2.92;;;24.80;49.60;;;;;;5055644;28;20025;-73
2022/06/21 04:41:58;;;;;;;6.85;3.42;;;24.80;48.30;;;;;;5055970;28;20504;-74
2022/06/21 04:44:48;;;;;;;9.90;3.78;;;24.80;49.70;;;;;;5055774;28;20028;-74
2022/06/21 04:47:20;;;;;;;6.68;3.42;;;24.90;48.10;;;;;;5056058;28;20029;-74
2022/06/21 04:50:15;;;;;;;8.73;3.60;;;24.90;47.80;;;;;;5055899;28;20120;-75
2022/06/21 04:53:30;;;;;;;9.00;3.83;;;25.00;49.10;;;;;;5055760;28;20041;-74
2022/06/21 04:56:13;;;;;;;10.75;3.85;;;25.00;48.30;;;;;;5047072;28;20052;-74
2022/06/21 04:58:39;;;;;;;10.55;3.50;;;25.00;47.90;;;;;;5054071;28;20036;-74
2022/06/21 05:01:29;;;;;;;7.60;3.70;;;25.00;49.50;;;;;;5055254;28;20074;-73
2022/06/21 05:03:53;;;;;;;10.15;3.55;;;25.00;49.30;;;;;;5055007;28;20032;-74
2022/06/21 05:06:19;;;;;;;9.30;3.70;;;25.10;49.90;;;;;;5055335;28;20550;-73
2022/06/21 05:08:48;;;;;;;7.90;3.80;;;25.10;49.70;;;;;;5055428;28;20033;-73
2022/06/21 05:11:14;;;;;;;10.93;4.22;;;25.10;50.20;;;;;;5054954;28;20037;-73
2022/06/21 05:13:50;;;;;;;8.35;3.70;;;25.10;50.40;;;;;;5055182;28;20055;-73
2022/06/21 05:16:28;;;;;;;10.82;4.25;;;25.20;49.30;;;;;;5053994;28;20544;-73
2022/06/21 05:19:31;;;;;;;8.52;3.70;;;25.40;49.00;;;;;;5055243;28;20100;-73
2022/06/21 05:22:16;;;;;;;9.75;3.85;;;25.60;48.90;;;;;;5043445;28;20037;-74
2022/06/21 05:24:44;;;;;;;12.45;4.20;;;25.80;48.40;;;;;;5053289;28;20028;-74
2022/06/21 05:27:33;;;;;;;9.80;3.83;;;26.20;49.60;;;;;;5055016;28;20097;-73
2022/06/21 05:30:11;;;;;;;11.50;3.78;;;26.50;49.20;;;;;;5053103;28;20029;-74
2022/06/21 05:32:55;;;;;;;13.55;3.60;;;26.70;46.60;;;;;;5052180;28;20467;-75
2022/06/21 05:35:26;;;;;;;11.48;4.07;;;26.90;48.10;;;;;;5054000;28;20112;-74
2022/06/21 05:38:04;;;;;;;12.50;4.22;;;27.20;48.10;;;;;;5054594;28;20123;-72
2022/06/21 05:40:30;;;;;;;12.05;4.22;;;27.50;47.60;;;;;;5054649;28;20474;-75
2022/06/21 05:42:56;;;;;;;15.75;5.43;;;27.70;47.40;;;;;;5051414;28;20096;-78
2022/06/21 05:45:29;;;;;;;13.80;5.15;;;27.80;46.90;;;;;;5054672;28;20033;-73
2022/06/21 05:47:59;;;;;;;12.10;4.72;;;27.80;46.70;;;;;;5054570;28;20048;-71
2022/06/21 05:50:29;;;;;;;9.02;4.00;;;27.90;46.10;;;;;;5046350;28;20047;-73
2022/06/21 05:53:11;;;;;;;8.70;3.78;;;28.00;45.60;;;;;;5048648;28;20037;-73
2022/06/21 05:55:44;;;;;;;8.70;3.70;;;28.10;45.40;;;;;;5034659;28;20068;-72
2022/06/21 05:58:25;;;;;;;11.68;3.72;;;28.30;43.60;;;;;;5034543;28;20383;-72
2022/06/21 06:01:13;;;;;;;6.78;3.97;;;28.40;44.30;;;;;;5034560;28;20072;-73
2022/06/21 06:04:04;;;;;;;10.25;3.53;;;28.60;42.80;;;;;;5041934;28;20482;-76
2022/06/21 06:06:35;;;;;;;6.95;3.22;;;28.60;42.20;;;;;;5036664;28;20029;-70
2022/06/21 06:09:21;;;;;;;9.43;3.60;;;28.70;43.40;;;;;;5042503;28;20025;-73
2022/06/21 06:11:59;;;;;;;10.15;3.35;;;28.80;43.00;;;;;;5053674;28;20114;-71
2022/06/21 06:14:34;;;;;;;11.30;3.70;;;28.70;41.80;;;;;;5053376;28;20036;-71
2022/06/21 06:17:05;;;;;;;12.90;4.03;;;28.90;41.80;;;;;;5052621;28;20355;-70
2022/06/21 06:19:37;;;;;;;10.38;4.13;;;28.90;42.90;;;;;;5053675;28;20040;-74
2022/06/21 06:22:09;;;;;;;11.18;3.72;;;29.00;42.70;;;;;;5052467;28;20458;-76
2022/06/21 06:24:46;;;;;;;10.75;3.88;;;29.10;42.60;;;;;;5050198;28;20413;-77
2022/06/21 06:27:26;;;;;;;10.50;3.90;;;29.20;42.30;;;;;;5052147;28;20029;-75
2022/06/21 06:29:54;;;;;;;17.83;3.78;;;29.40;41.10;;;;;;5052150;28;20493;-75
2022/06/21 06:32:27;;;;;;;9.80;3.65;;;29.70;41.40;;;;;;5045367;28;20041;-76
2022/06/21 06:34:54;;;;;;;11.60;3.80;;;29.90;41.20;;;;;;5032249;28;20033;-74
2022/06/21 06:37:36;;;;;;;11.57;3.40;;;29.90;40.90;;;;;;5033635;28;20083;-74
2022/06/21 06:40:28;;;;;;;16.20;3.70;;;30.00;39.60;;;;;;5033493;28;20029;-75
2022/06/21 06:43:03;;;;;;;15.07;3.42;;;30.10;39.50;;;;;;5032935;28;20046;-77
2022/06/21 06:45:35;;;;;;;9.93;3.58;;;30.30;39.90;;;;;;5033460;28;20043;-77
2022/06/21 06:48:12;;;;;;;12.07;3.30;;;30.50;39.30;;;;;;5033350;28;20112;-74
2022/06/21 06:50:45;;;;;;;11.30;3.80;;;30.40;39.40;;;;;;5032769;28;20084;-75
2022/06/21 06:53:19;;;;;;;11.02;3.88;;;30.40;39.30;;;;;;5033210;28;20033;-74
2022/06/21 06:55:48;;;;;;;7.97;3.00;;;30.40;39.20;;;;;;5033356;28;20029;-74
2022/06/21 06:58:34;;;;;;;11.10;2.97;;;30.40;39.10;;;;;;5032791;28;20104;-73
2022/06/21 07:01:09;;;;;;;13.82;3.33;;;30.50;39.00;;;;;;5031682;28;20029;-73
2022/06/21 07:03:41;;;;;;;13.23;3.25;;;30.70;38.80;;;;;;5035353;28;20493;-75
2022/06/21 07:06:21;;;;;;;8.63;3.00;;;30.80;38.60;;;;;;5033045;28;20433;-74
2022/06/21 07:08:46;;;;;;;12.18;3.05;;;30.80;38.40;;;;;;5033359;28;20375;-71
2022/06/21 07:11:35;;;;;;;7.22;2.80;;;30.80;38.10;;;;;;5032841;28;20030;-74
2022/06/21 07:14:01;;;;;;;15.75;3.40;;;31.00;38.40;;;;;;5033065;28;20048;-72
2022/06/21 07:16:30;;;;;;;12.80;3.60;;;31.10;38.20;;;;;;5032993;28;20055;-74
2022/06/21 07:19:00;;;;;;;9.15;3.40;;;31.20;38.20;;;;;;5031980;28;20026;-72
2022/06/21 07:21:26;;;;;;;8.40;3.28;;;31.30;37.90;;;;;;5033286;28;20057;-73
2022/06/21 07:23:57;;;;;;;8.45;3.03;;;31.30;37.90;;;;;;5032808;28;20496;-73
2022/06/21 07:26:55;;;;;;;10.45;3.70;;;31.40;37.80;;;;;;5031501;28;20117;-74
2022/06/21 07:29:35;;;;;;;11.43;4.13;;;31.30;38.00;;;;;;5028113;28;20068;-71
2022/06/21 07:32:09;;;;;;;12.40;3.78;;;31.30;38.00;;;;;;5032856;28;20045;-73
2022/06/21 07:35:13;;;;;;;11.27;3.53;;;31.40;38.00;;;;;;5033028;28;20038;-72
2022/06/21 07:38:13;;;;;;;15.75;3.40;;;31.40;37.90;;;;;;5017844;28;20036;-72
2022/06/21 07:40:57;;;;;;;12.70;3.47;;;31.50;37.70;;;;;;5037140;28;20396;-72
2022/06/21 07:43:25;;;;;;;7.43;2.55;;;31.40;37.20;;;;;;5036925;28;20025;-72
2022/06/21 07:45:55;;;;;;;6.80;2.60;;;31.40;37.90;;;;;;5036382;28;20178;-74
2022/06/21 07:48:29;;;;;;;12.05;3.13;;;31.30;37.10;;;;;;5037626;28;20033;-73
2022/06/21 07:51:12;;;;;;;7.63;2.55;;;31.30;36.70;;;;;;5037269;28;20053;-73
2022/06/21 07:53:58;;;;;;;13.57;2.78;;;31.40;36.90;;;;;;5037396;28;20068;-73
2022/06/21 07:56:33;;;;;;;13.75;3.25;;;31.40;36.50;;;;;;5037589;28;20028;-73
2022/06/21 07:59:08;;;;;;;10.40;2.70;;;31.50;36.50;;;;;;5036647;28;20030;-72
2022/06/21 08:07:22;;;;;;;6.85;2.00;;;31.50;35.50;;;;;;5036204;28;19915;-72
2022/06/21 08:09:55;;;;;;;8.35;2.47;;;31.50;35.50;;;;;;5036289;28;20470;-73
2022/06/21 08:12:21;;;;;;;6.47;2.40;;;31.50;36.00;;;;;;5035783;28;20038;-71
2022/06/21 08:14:47;;;;;;;8.52;2.42;;;31.60;35.00;;;;;;5034587;28;20021;-72
2022/06/21 08:17:17;;;;;;;7.20;2.58;;;31.50;35.40;;;;;;5034802;28;20402;-73
2022/06/21 08:19:50;;;;;;;13.27;2.65;;;31.60;35.10;;;;;;5035713;28;20467;-73
2022/06/21 08:22:16;;;;;;;;;;;31.60;35.10;;;;;;5036674;28;20022;-73
2022/06/21 08:25:18;;;;;;;4.78;2.45;;;31.50;34.20;;;;;;5035966;28;19905;-74
2022/06/21 08:28:00;;;;;;;9.18;2.78;;;31.40;35.70;;;;;;5034366;28;20552;-73
2022/06/21 08:30:29;;;;;;;10.82;2.95;;;31.30;35.30;;;;;;5035858;28;20052;-72
2022/06/21 08:33:05;;;;;;;10.80;3.42;;;31.30;34.90;;;;;;5035952;28;20041;-76
2022/06/21 08:35:47;;;;;;;10.35;2.70;;;31.20;34.90;;;;;;5035837;28;20025;-72
2022/06/21 08:38:13;;;;;;;7.20;2.30;;;31.10;35.60;;;;;;5035984;28;20031;-72
2022/06/21 08:41:03;;;;;;;5.70;2.38;;;31.00;35.00;;;;;;5035479;28;20029;-73
2022/06/21 08:44:05;;;;;;;10.65;2.60;;;31.00;35.40;;;;;;5035451;28;20204;-72
2022/06/21 08:46:46;;;;;;;6.07;2.53;;;31.00;35.40;;;;;;5033458;28;20026;-73
2022/06/21 08:49:32;;;;;;;6.97;2.90;;;31.00;35.10;;;;;;5035272;28;20025;-72
2022/06/21 08:52:07;;;;;;;8.57;2.30;;;31.00;34.70;;;;;;5034476;28;20048;-72
2022/06/21 08:54:50;;;;;;;6.10;2.25;;;31.00;34.80;;;;;;5035148;28;20029;-72
2022/06/21 08:57:32;;;;;;;6.28;2.40;;;31.00;34.50;;;;;;5035495;28;20033;-72
2022/06/21 09:00:18;;;;;;;4.88;2.17;;;31.00;34.70;;;;;;5035518;28;20068;-73
2022/06/21 09:03:08;;;;;;;32.95;4.07;;;31.10;34.20;;;;;;5033943;28;20116;-73
2022/06/21 09:06:14;;;;;;;8.70;2.95;;;31.00;34.40;;;;;;5034985;28;20091;-72
2022/06/21 09:09:09;;;;;;;6.32;2.28;;;31.00;34.60;;;;;;5035211;28;20333;-73
2022/06/21 09:11:44;;;;;;;9.82;2.80;;;31.00;34.70;;;;;;5033309;28;20037;-74
2022/06/21 09:14:15;;;;;;;9.25;2.55;;;31.10;34.10;;;;;;5035005;28;20033;-74
2022/06/21 09:17:00;;;;;;;6.53;2.50;;;31.00;33.30;;;;;;5034890;28;20039;-73
2022/06/21 09:20:07;;;;;;;21.50;2.80;;;31.00;33.70;;;;;;5034774;28;20036;-73
2022/06/21 09:22:48;;;;;;;6.28;2.80;;;31.10;33.90;;;;;;5014404;28;20048;-72
2022/06/21 09:25:40;;;;;;;7.07;2.47;;;31.10;33.90;;;;;;5033528;28;20086;-74
2022/06/21 09:28:38;;;;;;;9.40;2.63;;;31.10;33.80;;;;;;5034676;28;20042;-73
2022/06/21 09:31:15;;;;;;;10.50;2.40;;;31.20;33.80;;;;;;5034560;28;20180;-73
2022/06/21 09:33:55;;;;;;;5.90;2.70;;;31.20;32.70;;;;;;5034768;28;20109;-72
2022/06/21 09:36:21;;;;;;;7.80;2.65;;;31.10;32.70;;;;;;5033123;28;20052;-72
2022/06/21 09:39:22;;;;;;;5.72;2.38;;;31.20;33.00;;;;;;5034338;28;20412;-72
2022/06/21 09:42:06;;;;;;;9.38;2.60;;;31.30;33.20;;;;;;5026964;28;20033;-73
2022/06/21 09:44:54;;;;;;;7.72;2.80;;;31.30;32.90;;;;;;5033617;28;20037;-73
2022/06/21 09:47:48;;;;;;;8.43;2.35;;;31.40;32.50;;;;;;5035354;28;20085;-74
2022/06/21 09:50:44;;;;;;;8.68;2.13;;;31.40;32.30;;;;;;5034441;28;20091;-74
2022/06/21 09:53:44;;;;;;;10.50;2.67;;;31.40;32.10;;;;;;5034280;28;20101;-74
2022/06/21 09:56:50;;;;;;;11.60;2.78;;;31.40;32.20;;;;;;5034646;28;20036;-74
2022/06/21 09:59:30;;;;;;;9.73;2.53;;;31.50;31.60;;;;;;5033592;28;20033;-73
2022/06/21 10:02:27;;;;;;;8.55;2.85;;;31.50;31.70;;;;;;5034056;28;20031;-72
2022/06/21 10:04:52;;;;;;;10.48;3.08;;;31.50;32.10;;;;;;5033743;28;20071;-73
2022/06/21 10:07:35;;;;;;;8.85;2.60;;;31.50;31.40;;;;;;5033563;28;20029;-72
2022/06/21 10:10:06;;;;;;;7.32;2.50;;;31.60;31.60;;;;;;5034052;28;20025;-73
2022/06/21 10:13:00;;;;;;;6.95;2.53;;;31.70;31.10;;;;;;5033767;28;20041;-73
2022/06/21 10:15:39;;;;;;;11.32;2.60;;;31.70;31.10;;;;;;5033672;28;20482;-72
2022/06/21 10:18:23;;;;;;;11.30;3.00;;;31.70;31.40;;;;;;5033692;28;20072;-74
2022/06/21 10:20:57;;;;;;;;;;;31.80;31.50;;;;;;5034017;28;20133;-73
2022/06/21 10:23:49;;;;;;;10.13;2.70;;;31.80;31.20;;;;;;5033818;28;19986;-72
2022/06/21 10:26:28;;;;;;;10.88;2.70;;;31.90;31.30;;;;;;5033377;28;20029;-72
2022/06/21 10:29:03;;;;;;;7.97;2.78;;;31.90;31.60;;;;;;5033853;28;20424;-73
2022/06/21 10:32:00;;;;;;;8.27;2.58;;;31.90;31.00;;;;;;5033559;28;20488;-72
2022/06/21 10:34:26;;;;;;;9.35;2.90;;;31.90;30.60;;;;;;5025136;28;20041;-71
2022/06/21 10:37:15;;;;;;;14.40;3.25;;;31.90;30.30;;;;;;5033361;28;20443;-71
2022/06/21 10:40:56;;;;;;;10.93;3.17;;;32.00;30.80;;;;;;5033254;28;20048;-72
2022/06/21 10:43:48;;;;;;;10.27;2.95;;;32.20;31.20;;;;;;4914889;29;20466;-72
2022/06/21 10:46:30;;;;;;;7.60;2.65;;;32.20;30.80;;;;;;4974381;28;20092;-73
2022/06/21 10:49:14;;;;;;;14.35;3.05;;;32.20;30.80;;;;;;5033337;28;20124;-72
2022/06/21 10:52:17;;;;;;;8.65;2.30;;;32.40;30.30;;;;;;5032835;28;20075;-72
2022/06/21 10:54:54;;;;;;;6.85;2.67;;;32.50;30.20;;;;;;5033152;28;20423;-72
2022/06/21 10:57:41;;;;;;;10.30;2.60;;;32.60;29.80;;;;;;5032812;28;20037;-74
2022/06/21 11:03:33;;;;;;;6.25;2.40;;;32.70;29.20;;;;;;5018843;28;20095;-73
2022/06/21 11:06:28;;;;;;;5.38;2.38;;;32.70;29.20;;;;;;5033217;28;20033;-73
2022/06/21 11:09:06;;;;;;;8.77;2.30;;;32.80;29.20;;;;;;5031378;28;20478;-72
2022/06/21 11:12:52;;;;;;;9.57;2.10;;;32.80;28.90;;;;;;5031426;28;20075;-71
2022/06/21 11:14:58;;;;;;;5.07;2.27;;;32.90;28.20;;;;;;5033065;28;20036;-74
2022/06/21 11:17:37;;;;;;;11.25;3.05;;;33.00;28.40;;;;;;5032441;28;20100;-73
2022/06/21 11:20:15;;;;;;;7.88;2.95;;;33.10;28.30;;;;;;5031214;28;20389;-72
2022/06/21 11:22:50;;;;;;;5.80;2.10;;;33.20;28.90;;;;;;5032563;28;20438;-73
2022/06/21 11:25:22;;;;;;;8.95;3.00;;;33.20;28.40;;;;;;5032837;28;20048;-72
2022/06/21 11:27:48;;;;;;;9.65;3.30;;;33.20;29.70;;;;;;5032870;28;20033;-73
2022/06/21 11:30:28;;;;;;;8.85;3.28;;;33.20;31.20;;;;;;5032540;28;20025;-71
2022/06/21 11:33:05;;;;;;;6.90;4.03;;;33.30;33.70;;;;;;5032627;28;20513;-72
2022/06/21 11:35:39;;;;;;;5.47;2.92;;;33.30;34.90;;;;;;5031231;28;20399;-72
2022/06/21 11:38:11;;;;;;;8.43;3.35;;;33.30;36.90;;;;;;5032621;28;20052;-74
2022/06/21 11:40:59;;;;;;;9.15;3.35;;;33.30;38.70;;;;;;5032572;28;20018;-73
2022/06/21 11:43:39;;;;;;;7.05;3.30;;;33.40;39.90;;;;;;5032386;28;20048;-73
2022/06/21 11:46:33;;;;;;;9.98;2.97;;;33.40;40.40;;;;;;5032868;28;20142;-73
2022/06/21 11:49:14;;;;;;;10.95;3.00;;;33.40;40.50;;;;;;5032965;28;20037;-73
2022/06/21 11:52:28;;;;;;;7.93;2.88;;;33.40;41.00;;;;;;5031053;28;20148;-73
2022/06/21 11:55:12;;;;;;;6.05;2.50;;;33.30;41.60;;;;;;4975038;28;20102;-72
2022/06/21 11:57:41;;;;;;;6.60;2.85;;;33.20;41.60;;;;;;5029625;28;20120;-74
2022/06/21 12:00:15;;;;;;;7.82;2.25;;;33.20;41.50;;;;;;5031195;28;20025;-73
2022/06/21 12:03:02;;;;;;;8.13;3.22;;;33.20;41.40;;;;;;5032652;28;20059;-72
2022/06/21 12:05:53;;;;;;;8.27;3.10;;;33.20;42.00;;;;;;5032606;28;20478;-73
2022/06/21 12:08:43;;;;;;;6.88;2.65;;;33.20;41.30;;;;;;5032515;28;20195;-74
2022/06/21 12:11:49;;;;;;;10.25;2.70;;;33.30;41.50;;;;;;5032339;28;20037;-73
2022/06/21 12:14:52;;;;;;;11.57;3.17;;;33.30;41.50;;;;;;5017114;28;20049;-73
2022/06/21 12:17:22;;;;;;;8.93;2.67;;;33.30;42.10;;;;;;5033564;28;20068;-73
2022/06/21 12:19:56;;;;;;;4.65;2.67;;;33.20;41.80;;;;;;5031107;28;20033;-73
2022/06/21 12:22:35;;;;;;;9.85;3.25;;;33.30;41.80;;;;;;5033343;28;20029;-73
2022/06/21 12:25:01;;;;;;;8.82;2.90;;;33.30;41.90;;;;;;5035807;28;20432;-75
2022/06/21 12:27:27;;;;;;;9.43;2.80;;;33.30;41.40;;;;;;5035795;28;20364;-73
2022/06/21 12:30:02;;;;;;;8.13;2.60;;;33.30;41.20;;;;;;5036087;28;20033;-74
2022/06/21 12:32:30;;;;;;;7.95;2.85;;;33.30;41.20;;;;;;5036292;28;20368;-72
2022/06/21 12:35:04;;;;;;;4.72;2.70;;;33.30;41.10;;;;;;5036091;28;20018;-72
2022/06/21 12:37:48;;;;;;;8.25;2.85;;;33.30;40.80;;;;;;5035920;28;20035;-74
2022/06/21 12:40:29;;;;;;;12.73;2.75;;;33.30;41.60;;;;;;5035924;28;20014;-74
2022/06/21 12:43:22;;;;;;;6.15;2.60;;;33.20;41.60;;;;;;5034455;28;20115;-75
2022/06/21 12:46:11;;;;;;;8.27;3.00;;;33.30;41.40;;;;;;5035551;28;20029;-73
2022/06/21 12:48:51;;;;;;;7.50;2.80;;;33.40;41.70;;;;;;5035450;28;20446;-75
2022/06/21 12:52:05;;;;;;;5.80;2.95;;;33.50;41.90;;;;;;5035039;28;20045;-73
2022/06/21 12:54:49;;;;;;;5.85;2.97;;;33.40;42.00;;;;;;4993719;28;20037;-74
2022/06/21 12:57:23;;;;;;;9.05;3.38;;;33.50;42.10;;;;;;5035584;28;20558;-74
2022/06/21 13:00:01;;;;;;;7.32;2.90;;;33.50;42.50;;;;;;5035340;28;20029;-73
2022/06/21 13:02:50;;;;;;;6.53;2.70;;;33.50;42.50;;;;;;5035468;28;20053;-72
2022/06/21 13:05:57;;;;;;;5.78;2.30;;;33.40;42.70;;;;;;5035722;28;20466;-74
2022/06/21 13:08:32;;;;;;;4.50;2.28;;;33.30;42.50;;;;;;5029728;28;20061;-73
2022/06/21 13:11:39;;;;;;;4.38;2.65;;;33.30;42.10;;;;;;5033629;28;20049;-74
2022/06/21 13:14:28;;;;;;;7.78;2.35;;;33.30;42.30;;;;;;5012358;28;20045;-72
2022/06/21 13:17:53;;;;;;;6.97;2.67;;;33.40;42.20;;;;;;5034881;28;20033;-74
2022/06/21 13:20:40;;;;;;;5.20;2.25;;;33.30;41.70;;;;;;5034971;28;20422;-74
2022/06/21 13:23:39;;;;;;;7.82;2.70;;;33.30;41.50;;;;;;5034976;28;20104;-72
2022/06/21 13:26:46;;;;;;;7.22;2.42;;;33.30;41.30;;;;;;5035096;28;20030;-72
2022/06/21 13:29:26;;;;;;;5.35;2.47;;;33.30;40.90;;;;;;5014555;28;20042;-73
2022/06/21 13:32:00;;;;;;;6.15;2.20;;;33.30;40.70;;;;;;5035360;28;20025;-75
2022/06/21 13:34:49;;;;;;;9.05;2.70;;;33.30;40.30;;;;;;5034882;28;20026;-73
2022/06/21 13:37:22;;;;;;;5.15;2.22;;;33.30;39.70;;;;;;5034848;28;20049;-73
2022/06/21 13:40:23;;;;;;;5.80;2.50;;;33.30;40.50;;;;;;5033010;28;20030;-73
2022/06/21 13:42:51;;;;;;;5.28;2.35;;;33.40;40.40;;;;;;5034472;28;20513;-73
2022/06/21 13:45:29;;;;;;;7.50;2.80;;;33.40;40.10;;;;;;5033113;28;20471;-71
2022/06/21 13:48:01;;;;;;;6.20;2.60;;;33.40;40.00;;;;;;5034340;28;20022;-72
2022/06/21 13:50:47;;;;;;;6.93;2.50;;;33.50;39.70;;;;;;5034760;28;20050;-74
2022/06/21 13:53:19;;;;;;;7.25;2.45;;;33.40;38.70;;;;;;5013197;28;20044;-73